01:05
Airports
History
Links
Donate
Help keep this website running!
PayPal
Bitcoin
This page is community maintained. The information is intended for PC simulator navigation or reference.
Always use approved charts for navigation.
07B
Blue HillUpdated 28-Jul-2013
Blue Hill (07B)
Blue Hill, Maine, United States (4614)
4
Lat/Lng:44° 26' 52.7" N / 68° 34' 10.9" W
44.447972 / -68.569694
Elevation:363'ft / 111mMSL
Declination:W019°
ID / ICAO:07B
FAA:07B
Runways:1
Longest:(16-34) 981.7m / 3,221ft Grass
Distance To
Airport ID:
Nearby VORs <50NM
Nearby NDBs
Nearby WeatherUpdated 08-24-17 00:56 GMT
Nearby weather at KBHB, Hancock County-bar Harbor located 10.3 nautical miles from 07B
Altimeter: 29.77
Visibility: 10.0 statute miles
Wind: 0 knots (000°)
Temp: 18°c 64°f
Humidity: 68.0%

METAR: KBHB 240056Z AUTO 00000KT 10SM CLR 18/12 A2977 RMK AO2 SLP085 T01830122 $

(Powered by phpweather)
Runway 16 / 34
Dimensions:981.7 x 30.5m 3221' x 100'ft
Surface:Grass
Runway 16 [A]Runway 34 [B]
Heading:159°MH  140°TH339°MH   320°TH
Lat:
Lng:
44° 26' 57.55"N
68° 34' 12.01"W
44° 26' 33"N
68° 33' 44.16"W
User Notes and Comments
Google Map
Nearby Airports
(U) Hancock County-bar Harbor 10.3 NM
KBHB (WX) E 89°
(U) Islesboro 19.6 NM
57B WSW 239°
(U) Stonington Muni 19.8 NM
93B SSW 196°
4 Banks 20.7 NM
ME84 SSE 160°
(U) Belfast Muni 22.0 NM
KBST W 263°
4 Brewer 23.9 NM
0B2 NNW 335°
(R) Witherspoons Landing Strip, In 25.4 NM
ME41 SW 216°
VFR Chart
Flight Planning at SkyVector.com